createdAt,value
2019-05-12T00:02:17.761Z,2.70
2019-05-12T00:08:23.452Z,2.57
2019-05-12T00:14:29.968Z,2.13
2019-05-12T00:20:35.732Z,2.90
2019-05-12T00:26:42.989Z,2.90
2019-05-12T00:32:49.614Z,2.70
2019-05-12T00:38:57.883Z,2.27
2019-05-12T00:45:04.535Z,2.13
2019-05-12T00:51:10.430Z,2.60
2019-05-12T00:57:18.183Z,2.77
2019-05-12T01:03:23.876Z,2.47
2019-05-12T01:09:29.682Z,2.67
2019-05-12T01:15:37.757Z,2.50
2019-05-12T01:21:43.900Z,2.67
2019-05-12T01:27:49.642Z,2.60
2019-05-12T01:33:55.678Z,2.53
2019-05-12T01:40:01.459Z,2.53
2019-05-12T01:46:08.833Z,2.60
2019-05-12T01:52:14.763Z,2.50
2019-05-12T01:58:20.528Z,2.70
2019-05-12T02:04:28.460Z,2.20
2019-05-12T02:10:34.466Z,3.00
2019-05-12T02:16:40.309Z,2.40
2019-05-12T02:22:47.742Z,2.60
2019-05-12T02:28:53.740Z,2.43
2019-05-12T02:34:59.513Z,2.70
2019-05-12T02:41:05.587Z,2.73
2019-05-12T02:47:11.691Z,2.57
2019-05-12T02:53:17.736Z,2.70
2019-05-12T02:59:25.259Z,3.27
2019-05-12T03:05:34.874Z,3.20
2019-05-12T03:11:40.159Z,2.80
2019-05-12T03:17:45.941Z,3.10
2019-05-12T03:23:54.868Z,3.07
2019-05-12T03:29:59.699Z,2.73
2019-05-12T03:36:09.106Z,2.90
2019-05-12T03:42:14.548Z,2.97
2019-05-12T03:48:20.782Z,3.00
2019-05-12T03:54:26.606Z,2.80
2019-05-12T04:00:35.561Z,2.50
2019-05-12T04:06:40.363Z,3.00
2019-05-12T04:12:46.223Z,2.70
2019-05-12T04:18:54.947Z,2.73
2019-05-12T04:24:59.609Z,2.50
2019-05-12T04:31:05.734Z,2.87
2019-05-12T04:37:14.553Z,2.50
2019-05-12T04:43:19.389Z,2.67
2019-05-12T04:49:25.371Z,2.73
2019-05-12T04:55:31.343Z,2.90
2019-05-12T05:01:37.320Z,2.43
2019-05-12T05:07:44.849Z,2.93
2019-05-12T05:13:51.066Z,2.67
2019-05-12T05:19:57.421Z,3.10
2019-05-12T05:26:03.446Z,2.77
2019-05-12T05:32:09.304Z,3.47
2019-05-12T05:38:20.527Z,2.90
2019-05-12T05:44:23.991Z,3.20
2019-05-12T05:50:30.623Z,2.73
2019-05-12T05:56:42.762Z,2.70
2019-05-12T06:02:44.781Z,3.20
2019-05-12T06:09:00.611Z,2.90
2019-05-12T06:15:09.047Z,2.60
2019-05-12T06:21:14.906Z,2.80
2019-05-12T06:27:21.247Z,2.77
2019-05-12T06:33:31.634Z,2.63
2019-05-12T06:39:34.737Z,2.40
2019-05-12T06:45:44.873Z,2.40
2019-05-12T06:51:48.165Z,2.60
2019-05-12T06:57:54.224Z,2.13
2019-05-12T07:04:00.620Z,1.80
2019-05-12T07:10:15.127Z,1.40
2019-05-12T07:16:22.898Z,1.60
2019-05-12T07:22:25.889Z,1.60
2019-05-12T07:28:36.197Z,1.53
2019-05-12T07:34:39.384Z,1.60
2019-05-12T07:40:47.038Z,1.20
2019-05-12T07:46:54.066Z,1.73
2019-05-12T07:53:00.135Z,1.70
2019-05-12T07:59:05.920Z,1.43
2019-05-12T08:05:19.452Z,1.53
2019-05-12T08:11:20.403Z,1.10
2019-05-12T08:17:26.208Z,1.00
2019-05-12T08:23:33.902Z,1.10
2019-05-12T08:29:39.496Z,1.97
2019-05-12T08:35:45.479Z,1.30
2019-05-12T08:41:53.463Z,1.10
2019-05-12T08:48:03.704Z,1.43
2019-05-12T08:54:09.348Z,1.50
2019-05-12T09:00:17.751Z,0.90
2019-05-12T09:06:23.910Z,1.10
2019-05-12T09:12:29.740Z,1.50
2019-05-12T09:18:39.261Z,1.30
2019-05-12T09:24:44.124Z,1.13
2019-05-12T09:30:50.018Z,0.90
2019-05-12T09:36:59.731Z,1.00
2019-05-12T09:43:08.731Z,1.23
2019-05-12T09:49:11.155Z,1.23
2019-05-12T09:55:17.181Z,1.30
2019-05-12T10:01:24.188Z,1.30
2019-05-12T10:07:30.155Z,0.90
2019-05-12T10:13:36.158Z,1.20
2019-05-12T10:19:43.383Z,1.13
2019-05-12T10:25:49.278Z,1.00
2019-05-12T10:31:55.210Z,1.43
2019-05-12T10:38:08.573Z,1.17
2019-05-12T10:44:09.086Z,1.20
2019-05-12T10:50:18.967Z,1.00
2019-05-12T10:56:25.067Z,0.90
2019-05-12T11:02:33.302Z,1.00
2019-05-12T11:08:41.268Z,1.10
2019-05-12T11:14:46.658Z,0.93
2019-05-12T11:20:54.409Z,0.90
2019-05-12T11:27:00.126Z,1.00
2019-05-12T11:33:05.979Z,1.00
2019-05-12T11:39:14.113Z,1.30
2019-05-12T11:45:19.587Z,1.00
2019-05-12T11:51:29.185Z,0.73
2019-05-12T11:57:34.137Z,1.07
2019-05-12T12:03:40.323Z,1.10
2019-05-12T12:09:49.342Z,1.10
2019-05-12T12:15:54.539Z,1.33
2019-05-12T12:22:04.403Z,0.67
2019-05-12T12:28:10.153Z,0.90
2019-05-12T12:34:23.979Z,0.90
2019-05-12T12:40:24.079Z,0.53
2019-05-12T12:46:29.880Z,0.60
2019-05-12T12:52:38.631Z,0.80
2019-05-12T12:58:44.026Z,0.70
2019-05-12T13:04:50.480Z,1.10
2019-05-12T13:10:56.451Z,0.60
2019-05-12T13:17:04.145Z,0.90
2019-05-12T13:23:09.857Z,0.67
2019-05-12T13:29:16.060Z,0.77
2019-05-12T13:35:23.765Z,0.70
2019-05-12T13:41:29.956Z,0.77
2019-05-12T13:47:39.893Z,0.97
2019-05-12T13:53:46.454Z,0.90
2019-05-12T13:59:54.289Z,0.70
2019-05-12T14:06:03.585Z,0.80
2019-05-12T14:12:10.014Z,1.00
2019-05-12T14:18:20.502Z,0.77
2019-05-12T14:24:23.672Z,0.80
2019-05-12T14:30:29.616Z,0.97
2019-05-12T14:36:35.888Z,0.90
2019-05-12T14:42:43.981Z,0.80
2019-05-12T14:48:50.577Z,0.93
2019-05-12T14:54:56.821Z,1.10
2019-05-12T15:01:03.941Z,0.90
2019-05-12T15:07:10.286Z,1.07
2019-05-12T15:13:17.196Z,0.80
2019-05-12T15:19:27.863Z,1.07
2019-05-12T15:25:35.447Z,0.90
2019-05-12T15:31:52.475Z,0.93
2019-05-12T15:37:46.446Z,1.00
2019-05-12T15:43:55.853Z,0.87
2019-05-12T15:50:03.882Z,0.90
2019-05-12T15:56:14.392Z,0.77
2019-05-12T16:02:17.469Z,0.90
2019-05-12T16:08:24.464Z,0.70
2019-05-12T16:14:36.088Z,0.73
2019-05-12T16:20:37.995Z,0.77
2019-05-12T16:26:51.592Z,1.10
2019-05-12T16:32:51.478Z,1.00
2019-05-12T16:39:00.133Z,0.70
2019-05-12T16:45:09.781Z,0.80
2019-05-12T16:51:13.956Z,0.83
2019-05-12T16:57:20.473Z,1.00
2019-05-12T17:03:26.459Z,0.90
2019-05-12T17:09:33.212Z,0.97
2019-05-12T17:15:39.219Z,1.13
2019-05-12T17:21:49.452Z,1.03
2019-05-12T17:27:52.740Z,1.10
2019-05-12T17:34:00.260Z,1.20
2019-05-12T17:40:09.372Z,0.87
2019-05-12T17:46:18.175Z,1.27
2019-05-12T17:52:23.420Z,1.10
2019-05-12T17:58:34.914Z,1.10
2019-05-12T18:04:37.471Z,1.03
2019-05-12T18:10:43.809Z,1.10
2019-05-12T18:16:55.575Z,1.10
2019-05-12T18:22:57.309Z,1.10
2019-05-12T18:29:04.147Z,1.13
2019-05-12T18:35:10.438Z,1.10
2019-05-12T18:41:16.308Z,1.13
2019-05-12T18:47:31.341Z,1.03
2019-05-12T18:53:31.930Z,1.13
2019-05-12T18:59:37.719Z,1.20
2019-05-12T19:05:43.924Z,1.10
2019-05-12T19:11:50.159Z,1.00
2019-05-12T19:17:56.752Z,1.23
2019-05-12T19:24:03.591Z,1.07
2019-05-12T19:30:09.946Z,0.93
2019-05-12T19:36:16.193Z,1.17
2019-05-12T19:42:24.408Z,1.20
2019-05-12T19:48:35.035Z,1.10
2019-05-12T19:54:38.723Z,1.30
2019-05-12T20:00:45.429Z,1.20
2019-05-12T20:06:51.429Z,1.20
2019-05-12T20:12:57.281Z,1.67
2019-05-12T20:19:04.325Z,1.53
2019-05-12T20:25:11.210Z,1.80
2019-05-12T20:31:17.637Z,1.27
2019-05-12T20:37:24.434Z,1.40
2019-05-12T20:43:33.186Z,1.13
2019-05-12T20:49:45.086Z,1.33
2019-05-12T20:55:46.040Z,1.30
2019-05-12T21:01:51.854Z,1.63
2019-05-12T21:08:05.397Z,1.87
2019-05-12T21:14:10.104Z,1.60
2019-05-12T21:20:16.512Z,1.57
2019-05-12T21:26:21.624Z,1.50
2019-05-12T21:32:27.877Z,1.90
2019-05-12T21:38:34.208Z,1.50
2019-05-12T21:44:41.306Z,1.73
2019-05-12T21:50:48.075Z,1.60
2019-05-12T21:56:54.354Z,1.70
2019-05-12T22:03:02.655Z,1.70
2019-05-12T22:09:11.505Z,1.67
2019-05-12T22:15:28.595Z,1.60
2019-05-12T22:21:35.767Z,1.60
2019-05-12T22:27:41.173Z,1.57
2019-05-12T22:33:52.246Z,1.63
2019-05-12T22:39:54.588Z,1.60
2019-05-12T22:46:00.345Z,1.80
2019-05-12T22:52:07.219Z,2.00
2019-05-12T22:58:20.536Z,1.77
2019-05-12T23:04:25.967Z,2.10
2019-05-12T23:10:29.132Z,1.93
2019-05-12T23:16:35.180Z,1.90
2019-05-12T23:22:43.670Z,2.50
2019-05-12T23:28:50.295Z,2.10
2019-05-12T23:34:58.500Z,2.00
2019-05-12T23:41:04.221Z,1.70
2019-05-12T23:47:10.355Z,1.90
2019-05-12T23:53:16.650Z,1.77
2019-05-12T23:59:23.981Z,1.43
